Dubai Fortune — H9SA — position and weather

sailwx.info

Track history (hours):
 
Tides and Currents Weather Stations Pressure Air Temp Water Temp Dewpoint Dewpoint Depression Visibility Wind Speed Wind Dir Waves Ship Positions

Dubai Fortune

Last reported at 2015-Mar-20 08:33 UTC. Time now 2015-Mar-26 22:34 UTC.
Position N 01°16' E 104°15'.

Length 188 m; draft 8.2 m.

Type: Cargo ship. MMSI: 353316000.

Date/timePositionNaut miles runAvg speedWind from/ knotsBaromVisibWave heightAir tempDewpointWater temp
2015-Mar-20 08:33N 01°16' E 104°15'1111.5
2015-Mar-20 07:33N 01°15' E 104°04'4 4.2
2015-Mar-20 06:33N 01°17' E 104°00'0 0.0
2015-Mar-20 05:27N 01°17' E 104°00'0 0.0
2015-Mar-19 20:24N 01°17' E 103°60'0 0.1
2015-Mar-19 19:12N 01°17' E 103°60'0 0.1
2015-Mar-19 18:30N 01°17' E 103°60'0 0.0
2015-Mar-19 10:22N 01°17' E 103°60'2 2.2
2015-Mar-19 09:33N 01°16' E 103°58'2 2.4
2015-Mar-19 08:33N 01°16' E 104°01'9 9.2
2015-Mar-19 07:33N 01°17' E 104°10'  
Track history (hours):
 
Tides and Currents Weather Stations Pressure Air Temp Water Temp Dewpoint Dewpoint Depression Visibility Wind Speed Wind Dir Waves Ship Positions

Dubai Fortune

Last reported at 2015-Mar-20 08:33 UTC. Time now 2015-Mar-26 22:34 UTC.
Position N 01°16' E 104°15'.

Length 188 m; draft 8.2 m.

Type: Cargo ship. MMSI: 353316000.

Date/timePositionNaut miles runAvg speedWind from/ knotsBaromVisibWave heightAir tempDewpointWater temp
2015-Mar-20 08:33N 01°16' E 104°15'1111.5
2015-Mar-20 07:33N 01°15' E 104°04'4 4.2
2015-Mar-20 06:33N 01°17' E 104°00'0 0.0
2015-Mar-20 05:27N 01°17' E 104°00'0 0.0
2015-Mar-19 20:24N 01°17' E 103°60'0 0.1
2015-Mar-19 19:12N 01°17' E 103°60'0 0.1
2015-Mar-19 18:30N 01°17' E 103°60'0 0.0
2015-Mar-19 10:22N 01°17' E 103°60'2 2.2
2015-Mar-19 09:33N 01°16' E 103°58'2 2.4
2015-Mar-19 08:33N 01°16' E 104°01'9 9.2
2015-Mar-19 07:33N 01°17' E 104°10'  

Dump ship's entire track history